< Typhoon 196815 1968 Season Typhoon 196817 >
Typhoon 196816 (DELLA)
Third Miyakojima Typhoon
General InformationTrack Information on Google Maps || NewsDisaster Info.ResourceGoogle EarthGE AnimationAtom FeedGeoJSON
Detalied Best Track (Time Zone = UTC)
Year Month Day Hour Lat. Long. Pressure (hPa) Wind (kt) Class Image Chart
1968 9 11 18 15.7 148.3 1008 0 2 -- Chart
1968 9 12 00 15.7 147.6 1009 0 2 -- Chart
1968 9 12 06 15.6 147.1 1007 0 2 -- Chart
1968 9 12 12 15.4 146.5 1009 0 2 -- Chart
1968 9 12 18 15.1 145.9 1007 0 2 -- Chart
1968 9 13 00 14.7 144.4 1007 0 2 -- Chart
1968 9 13 06 15.5 143.5 1007 0 2 -- Chart
1968 9 13 12 15.9 142.8 1008 0 2 -- Chart
1968 9 13 18 16.2 141.9 1008 0 2 -- Chart
1968 9 14 00 16.5 140.8 1008 0 2 -- Chart
1968 9 14 06 16.7 139.8 1006 0 2 -- Chart
1968 9 14 12 17.1 138.5 1008 0 2 -- Chart
1968 9 14 18 17.3 137.7 1006 0 2 -- Chart
1968 9 15 00 17.7 136.6 1006 0 2 -- Chart
1968 9 15 06 18.2 136.1 1004 0 2 -- Chart
1968 9 15 12 18.7 135.9 1004 0 2 -- Chart
1968 9 15 18 19.4 136.0 1004 0 2 -- Chart
1968 9 16 00 19.9 135.9 1004 0 2 -- Chart
1968 9 16 06 19.8 135.5 1002 0 2 -- Chart
1968 9 16 12 19.6 135.5 1000 0 2 -- Chart
1968 9 16 18 19.4 135.4 996 0 2 -- Chart
1968 9 17 00 19.2 134.9 995 0 9 -- Chart
1968 9 17 06 18.7 134.3 995 0 9 -- Chart
1968 9 17 12 18.3 134.2 995 0 9 -- Chart
1968 9 17 18 17.8 134.0 990 0 9 -- Chart
1968 9 18 00 17.3 134.0 985 0 9 -- Chart
1968 9 18 06 16.9 133.7 980 0 9 -- Chart
1968 9 18 12 16.9 133.3 975 0 9 -- Chart
1968 9 18 18 17.0 133.0 970 0 9 -- Chart
1968 9 19 00 16.7 132.5 965 0 9 -- Chart
1968 9 19 06 17.0 131.8 960 0 9 -- Chart
1968 9 19 12 17.2 131.0 955 0 9 -- Chart
1968 9 19 18 17.5 130.5 955 0 9 -- Chart
1968 9 20 00 17.9 130.0 950 0 9 -- Chart
1968 9 20 06 18.3 129.7 945 0 9 -- Chart
1968 9 20 12 18.8 129.0 945 0 9 -- Chart
1968 9 20 18 19.5 128.6 945 0 9 -- Chart
1968 9 21 00 20.1 128.1 945 0 9 -- Chart
1968 9 21 06 20.8 127.6 945 0 9 -- Chart
1968 9 21 12 21.3 127.0 940 0 9 -- Chart
1968 9 21 18 22.1 126.0 935 0 9 -- Chart
1968 9 22 00 22.9 125.5 930 0 9 -- Chart
1968 9 22 06 23.7 125.2 930 0 9 -- Chart
1968 9 22 12 24.3 125.4 935 0 9 -- Chart
1968 9 22 18 24.9 125.7 935 0 9 -- Chart
1968 9 23 00 25.7 126.0 935 0 9 -- Chart
1968 9 23 06 26.7 126.7 940 0 9 -- Chart
1968 9 23 12 27.6 127.3 945 0 9 -- Chart
1968 9 23 18 28.6 128.0 950 0 9 -- Chart
1968 9 24 00 29.5 128.9 955 0 9 -- Chart
1968 9 24 06 30.6 129.5 955 0 9 -- Chart
1968 9 24 12 31.4 130.1 955 0 9 -- Chart
1968 9 24 18 32.5 130.3 980 0 9 -- Chart
1968 9 25 00 33.2 130.1 1002 0 9 -- Chart
1968 9 25 06 32.7 130.2 1006 0 2 -- Chart
1968 9 25 12 32.5 130.2 1009 0 2 -- Chart
1968 9 25 18 32.3 130.1 1010 0 2 -- Chart
1968 9 26 00 32.0 130.0 1013 0 6 -- Chart
1968 9 26 06 31.7 129.8 1012 0 6 -- Chart
1968 9 26 12 31.8 129.5 1014 0 6 -- Chart
1968 9 26 18 32.0 129.0 1013 0 6 -- Chart
1968 9 27 00 32.0 129.0 1014 0 6 -- Chart
1968 9 27 06 32.1 129.0 1013 0 6 -- Chart
1968 9 27 12 32.3 129.0 1013 0 6 -- Chart
Japan Meteorological Agency Best Track Data | Correction Date : 2013-03-19
< Typhoon 196815 1968 Season Typhoon 196817 >

Help